createdAt,value
2018-07-06T00:01:27.998Z,101553.84
2018-07-06T00:04:13.231Z,101549.13
2018-07-06T00:06:58.481Z,101554.89
2018-07-06T00:09:43.525Z,101553.22
2018-07-06T00:12:28.682Z,101554.92
2018-07-06T00:15:13.787Z,101558.66
2018-07-06T00:17:58.926Z,101555.47
2018-07-06T00:20:44.208Z,101557.34
2018-07-06T00:23:29.340Z,101555.51
2018-07-06T00:26:14.525Z,101557.38
2018-07-06T00:28:59.518Z,101566.49
2018-07-06T00:31:44.648Z,101570.91
2018-07-06T00:34:29.796Z,101569.37
2018-07-06T00:37:15.067Z,101570.39
2018-07-06T00:40:00.358Z,101567.58
2018-07-06T00:42:45.426Z,101571.81
2018-07-06T00:45:30.600Z,101569.30
2018-07-06T00:48:15.762Z,101574.36
2018-07-06T00:51:02.247Z,101568.63
2018-07-06T00:53:47.331Z,101570.67
2018-07-06T00:56:32.497Z,101570.34
2018-07-06T00:59:17.660Z,101576.08
2018-07-06T01:02:02.917Z,101575.05
2018-07-06T01:04:48.003Z,101572.74
2018-07-06T01:07:33.214Z,101580.66
2018-07-06T01:10:18.334Z,101573.58
2018-07-06T01:13:03.426Z,101579.50
2018-07-06T01:15:48.573Z,101573.07
2018-07-06T01:18:33.788Z,101577.81
2018-07-06T01:21:19.193Z,101580.51
2018-07-06T01:24:04.617Z,101577.00
2018-07-06T01:26:49.965Z,101582.73
2018-07-06T01:29:35.424Z,101576.34
2018-07-06T01:32:20.832Z,101588.66
2018-07-06T01:35:06.204Z,101596.77
2018-07-06T01:37:51.582Z,101589.81
2018-07-06T01:40:37.139Z,101589.13
2018-07-06T01:43:22.756Z,101589.94
2018-07-06T01:46:07.912Z,101594.29
2018-07-06T01:48:53.034Z,101593.09
2018-07-06T01:51:38.151Z,101589.52
2018-07-06T01:54:23.249Z,101587.27
2018-07-06T01:57:08.755Z,101599.42
2018-07-06T01:59:54.165Z,101586.24
2018-07-06T02:02:39.802Z,101596.36
2018-07-06T02:05:25.231Z,101588.25
2018-07-06T02:08:11.055Z,101590.45
2018-07-06T02:10:56.168Z,101594.14
2018-07-06T02:13:41.202Z,101589.39
2018-07-06T02:16:26.602Z,101591.37
2018-07-06T02:19:12.176Z,101596.11
2018-07-06T02:21:57.616Z,101595.45
2018-07-06T02:24:43.146Z,101599.14
2018-07-06T02:27:28.608Z,101597.98
2018-07-06T02:30:14.087Z,101587.86
2018-07-06T02:32:59.667Z,101593.11
2018-07-06T02:35:45.120Z,101594.11
2018-07-06T10:48:17.589Z,101808.84
2018-07-06T10:50:45.980Z,101809.41
2018-07-06T10:53:14.542Z,101815.45
2018-07-06T10:55:42.882Z,101810.44
2018-07-06T10:58:11.055Z,101818.52
2018-07-06T11:00:39.350Z,101811.55
2018-07-06T11:03:07.533Z,101823.28
2018-07-06T11:05:35.764Z,101824.52
2018-07-06T11:08:03.943Z,101821.06
2018-07-06T11:10:32.048Z,101819.05
2018-07-06T11:13:00.470Z,101816.20
2018-07-06T11:15:28.722Z,101815.39
2018-07-06T11:17:57.041Z,101818.04
2018-07-06T11:20:25.308Z,101816.55
2018-07-06T11:22:53.423Z,101821.45
2018-07-06T11:25:21.589Z,101826.02
2018-07-06T11:27:49.986Z,101827.70
2018-07-06T11:30:18.157Z,101831.03
2018-07-06T11:32:46.342Z,101831.85
2018-07-06T11:35:14.514Z,101828.89
2018-07-06T11:37:42.604Z,101826.83
2018-07-06T11:40:10.744Z,101832.34
2018-07-06T11:42:39.038Z,101828.20
2018-07-06T11:45:07.492Z,101833.97
2018-07-06T11:47:36.432Z,101840.75
2018-07-06T11:50:04.595Z,101833.14
2018-07-06T11:52:32.739Z,101830.88
2018-07-06T11:55:00.970Z,101834.16
2018-07-06T11:57:29.739Z,101831.05
2018-07-06T11:59:58.036Z,101833.84
2018-07-06T12:02:26.222Z,101825.91
2018-07-06T12:04:54.440Z,101830.83
2018-07-06T12:07:22.595Z,101827.64
2018-07-06T12:09:51.427Z,101833.87
2018-07-06T12:12:19.591Z,101831.38
2018-07-06T12:14:47.682Z,101836.73
2018-07-06T12:17:15.769Z,101834.45
2018-07-06T12:19:43.958Z,101829.92
2018-07-06T12:22:12.031Z,101833.98
2018-07-06T12:24:40.203Z,101829.05
2018-07-06T12:27:08.482Z,101829.48
2018-07-06T12:29:36.618Z,101823.87
2018-07-06T12:32:04.787Z,101828.27
2018-07-06T12:34:33.056Z,101830.94
2018-07-06T12:37:01.758Z,101831.88
2018-07-06T12:39:29.919Z,101822.64
2018-07-06T12:41:58.723Z,101819.88
2018-07-06T12:44:26.872Z,101820.20
2018-07-06T12:46:55.705Z,101815.27
2018-07-06T12:49:23.848Z,101828.50
2018-07-06T12:51:51.997Z,101825.73
2018-07-06T12:54:20.098Z,101823.63
2018-07-06T12:56:48.248Z,101829.27
2018-07-06T12:59:16.487Z,101826.20
2018-07-06T13:01:44.668Z,101828.91
2018-07-06T13:04:12.758Z,101831.66
2018-07-06T13:06:40.942Z,101833.49
2018-07-06T13:09:09.058Z,101840.47
2018-07-06T13:11:37.583Z,101844.20
2018-07-06T13:14:06.416Z,101843.22
2018-07-06T13:16:34.544Z,101845.44
2018-07-06T13:19:02.646Z,101840.25
2018-07-06T13:21:30.886Z,101839.39
2018-07-06T13:23:59.198Z,101840.77
2018-07-06T13:26:27.433Z,101838.52
2018-07-06T13:28:56.667Z,101840.75
2018-07-06T13:31:25.231Z,101841.88
2018-07-06T13:33:53.564Z,101844.41
2018-07-06T13:36:21.787Z,101843.33
2018-07-06T13:38:49.903Z,101843.18
2018-07-06T13:41:18.073Z,101846.87
2018-07-06T13:43:46.242Z,101845.91
2018-07-06T13:46:14.309Z,101848.13
2018-07-06T13:48:43.026Z,101843.70
2018-07-06T13:51:11.175Z,101853.45
2018-07-06T13:53:39.377Z,101855.28
2018-07-06T13:56:08.484Z,101852.58
2018-07-06T13:58:36.686Z,101854.57
2018-07-06T14:01:04.857Z,101865.88
2018-07-06T14:03:32.919Z,101867.69
2018-07-06T14:06:01.156Z,101872.41
2018-07-06T14:08:29.464Z,101865.47
2018-07-06T14:10:57.618Z,101862.02
2018-07-06T14:13:26.502Z,101861.39
2018-07-06T14:15:54.722Z,101862.64
2018-07-06T14:18:22.877Z,101863.08
2018-07-06T14:20:51.056Z,101864.02
2018-07-06T14:23:19.205Z,101863.64
2018-07-06T14:25:47.375Z,101871.97
2018-07-06T14:28:15.463Z,101872.47
2018-07-06T14:30:43.605Z,101874.34
2018-07-06T14:33:11.633Z,101878.95
2018-07-06T14:35:39.784Z,101872.84
2018-07-06T14:38:07.949Z,101874.84
2018-07-06T14:40:37.030Z,101870.46
2018-07-06T14:43:05.265Z,101863.90
2018-07-06T14:45:33.422Z,101872.77
2018-07-06T14:48:01.678Z,101869.23
2018-07-06T14:50:29.888Z,101871.54
2018-07-06T14:52:58.141Z,101870.84
2018-07-06T14:55:26.300Z,101868.34
2018-07-06T14:57:54.355Z,101870.92
2018-07-06T15:00:22.587Z,101877.30
2018-07-06T15:02:50.738Z,101874.29
2018-07-06T15:05:18.850Z,101876.40
2018-07-06T15:07:46.974Z,101869.38
2018-07-06T15:10:15.107Z,101875.84
2018-07-06T15:12:43.306Z,101879.23
2018-07-06T15:15:11.452Z,101885.23
2018-07-06T15:17:39.546Z,101888.36
2018-07-06T15:20:07.631Z,101880.05
2018-07-06T15:22:35.943Z,101882.27
2018-07-06T15:25:04.035Z,101885.05
2018-07-06T15:27:32.217Z,101881.00
2018-07-06T15:30:00.465Z,101876.84
2018-07-06T15:32:28.806Z,101880.09
2018-07-06T15:34:56.978Z,101879.62
2018-07-06T15:37:25.131Z,101874.63
2018-07-06T15:39:53.227Z,101880.53
2018-07-06T15:42:21.429Z,101878.47
2018-07-06T15:44:49.683Z,101885.36
2018-07-06T15:47:17.820Z,101884.23
2018-07-06T15:49:46.549Z,101879.03
2018-07-06T15:52:14.716Z,101878.23
2018-07-06T15:54:42.853Z,101879.36
2018-07-06T15:57:10.979Z,101881.13
2018-07-06T15:59:39.162Z,101880.38
2018-07-06T16:02:07.921Z,101877.41
2018-07-06T16:04:36.066Z,101879.56
2018-07-06T16:07:04.127Z,101880.84
2018-07-06T16:09:32.283Z,101876.45
2018-07-06T16:12:00.435Z,101878.22
2018-07-06T16:14:28.527Z,101873.59
2018-07-06T16:16:56.611Z,101867.95
2018-07-06T16:19:24.691Z,101875.16
2018-07-06T16:21:52.781Z,101868.92
2018-07-06T16:24:20.890Z,101864.52
2018-07-06T16:26:49.080Z,101867.20
2018-07-06T16:29:17.202Z,101860.27
2018-07-06T16:31:45.351Z,101854.17
2018-07-06T16:34:13.440Z,101860.77
2018-07-06T16:36:41.564Z,101859.93
2018-07-06T16:39:09.766Z,101855.62
2018-07-06T16:41:38.590Z,101847.20
2018-07-06T16:44:06.824Z,101839.21
2018-07-06T16:46:34.818Z,101840.54
2018-07-06T16:49:02.889Z,101836.66
2018-07-06T16:51:31.048Z,101835.58
2018-07-06T16:53:59.299Z,101829.68
2018-07-06T16:56:27.360Z,101827.77
2018-07-06T16:58:55.493Z,101831.77
2018-07-06T17:01:23.673Z,101831.08
2018-07-06T17:03:51.966Z,101829.91
2018-07-06T17:06:20.450Z,101830.69
2018-07-06T17:08:48.558Z,101826.94
2018-07-06T17:11:16.649Z,101829.73
2018-07-06T17:13:44.899Z,101834.31
2018-07-06T17:16:13.022Z,101825.00
2018-07-06T17:18:41.112Z,101831.34
2018-07-06T17:21:09.187Z,101827.94
2018-07-06T17:23:37.388Z,101828.61
2018-07-06T17:26:05.609Z,101825.98
2018-07-06T17:28:33.734Z,101832.61
2018-07-06T17:31:01.903Z,101824.64
2018-07-06T17:33:30.020Z,101828.14
2018-07-06T17:35:58.078Z,101831.28
2018-07-06T17:38:26.273Z,101831.81
2018-07-06T17:40:54.414Z,101832.77
2018-07-06T17:43:22.501Z,101827.69
2018-07-06T17:45:50.718Z,101824.59
2018-07-06T17:48:18.879Z,101821.52
2018-07-06T17:50:47.156Z,101831.02
2018-07-06T17:53:15.301Z,101820.42
2018-07-06T17:55:43.469Z,101823.83
2018-07-06T17:58:11.671Z,101830.42
2018-07-06T18:00:39.934Z,101825.25
2018-07-06T18:03:08.197Z,101829.36
2018-07-06T18:05:36.346Z,101831.97
2018-07-06T18:08:04.521Z,101831.05
2018-07-06T18:10:32.585Z,101831.58
2018-07-06T18:13:00.763Z,101832.27
2018-07-06T18:15:28.973Z,101826.80
2018-07-06T18:17:57.102Z,101830.23
2018-07-06T18:20:25.217Z,101833.92
2018-07-06T18:22:53.470Z,101835.83
2018-07-06T18:25:21.566Z,101834.16
2018-07-06T18:27:50.329Z,101839.95
2018-07-06T18:30:18.447Z,101844.66
2018-07-06T18:32:47.109Z,101841.42
2018-07-06T18:35:15.306Z,101841.68
2018-07-06T18:37:44.820Z,101845.56
2018-07-06T18:40:12.925Z,101848.02
2018-07-06T18:42:41.344Z,101851.23
2018-07-06T18:45:09.399Z,101855.50
2018-07-06T18:47:39.472Z,101856.72
2018-07-06T18:50:07.477Z,101859.98
2018-07-06T18:52:36.176Z,101856.72
2018-07-06T18:55:04.311Z,101864.91
2018-07-06T18:57:32.477Z,101861.39
2018-07-06T19:00:00.628Z,101861.89
2018-07-06T19:02:28.895Z,101854.87
2018-07-06T19:04:57.135Z,101860.95
2018-07-06T19:07:25.414Z,101865.42
2018-07-06T19:09:54.288Z,101865.83
2018-07-06T19:12:22.517Z,101866.24
2018-07-06T19:14:50.977Z,101860.83
2018-07-06T19:17:19.354Z,101864.67
2018-07-06T19:19:47.653Z,101866.67
2018-07-06T19:22:15.875Z,101866.27
2018-07-06T19:24:44.163Z,101865.53
2018-07-06T19:27:12.534Z,101867.47
2018-07-06T19:29:40.804Z,101867.16
2018-07-06T19:32:09.649Z,101872.78
2018-07-06T19:34:37.798Z,101878.52
2018-07-06T19:37:06.023Z,101885.23
2018-07-06T19:39:34.322Z,101893.50
2018-07-06T19:42:02.635Z,101897.62
2018-07-06T19:44:31.508Z,101895.38
2018-07-06T19:46:59.802Z,101902.58
2018-07-06T19:49:27.925Z,101904.42
2018-07-06T19:51:56.312Z,101905.66
2018-07-06T19:54:24.626Z,101912.03
2018-07-06T19:56:52.746Z,101910.70
2018-07-06T19:59:20.867Z,101910.75
2018-07-06T20:01:50.197Z,101913.72
2018-07-06T20:04:18.307Z,101917.67
2018-07-06T20:06:46.611Z,101928.48
2018-07-06T20:09:14.765Z,101924.68
2018-07-06T20:11:42.901Z,101936.86
2018-07-06T20:14:11.372Z,101941.69
2018-07-06T20:16:39.748Z,101938.00
2018-07-06T20:19:07.886Z,101946.09
2018-07-06T20:21:36.046Z,101946.06
2018-07-06T20:24:04.356Z,101955.70
2018-07-06T20:26:32.530Z,101959.65
2018-07-06T20:29:00.777Z,101965.50
2018-07-06T20:31:28.814Z,101963.81
2018-07-06T20:33:57.090Z,101962.91
2018-07-06T20:36:25.344Z,101972.28
2018-07-06T20:38:53.546Z,101973.89
2018-07-06T20:41:21.726Z,101975.56
2018-07-06T20:43:50.566Z,101971.19
2018-07-06T20:46:18.743Z,101977.14
2018-07-06T20:48:46.905Z,101978.36
2018-07-06T20:51:15.060Z,101986.02
2018-07-06T20:53:44.471Z,101986.40
2018-07-06T20:56:12.675Z,101992.06
2018-07-06T20:58:40.752Z,101985.75
2018-07-06T21:01:09.557Z,101991.70
2018-07-06T21:03:38.136Z,101999.00
2018-07-06T21:06:06.562Z,101999.23
2018-07-06T21:08:34.724Z,101992.31
2018-07-06T21:11:02.894Z,101991.84
2018-07-06T21:13:31.066Z,101997.00
2018-07-06T21:15:59.259Z,101998.02
2018-07-06T21:18:27.450Z,101997.13
2018-07-06T21:20:55.727Z,101993.95
2018-07-06T21:23:23.820Z,101995.63
2018-07-06T21:25:52.800Z,101998.00
2018-07-06T21:28:20.938Z,101999.42
2018-07-06T21:30:49.340Z,102002.14
2018-07-06T21:33:17.793Z,102008.81
2018-07-06T21:35:46.053Z,102005.25
2018-07-06T21:38:14.245Z,101999.55
2018-07-06T21:40:42.495Z,102004.83
2018-07-06T21:43:10.587Z,102007.73
2018-07-06T21:45:39.327Z,102007.40
2018-07-06T21:48:07.587Z,102017.26
2018-07-06T21:50:35.701Z,102021.70
2018-07-06T21:53:04.100Z,102022.91
2018-07-06T21:55:32.585Z,102015.80
2018-07-06T21:58:00.710Z,102014.48
2018-07-06T22:00:41.450Z,102016.94
2018-07-06T22:03:11.470Z,102018.15
2018-07-06T22:05:40.661Z,102015.15
2018-07-06T22:08:08.797Z,102016.87
2018-07-06T22:10:37.491Z,102019.58
2018-07-06T22:13:06.319Z,102012.70
2018-07-06T22:15:50.257Z,102015.59
2018-07-06T22:18:19.194Z,102013.42
2018-07-06T22:20:48.241Z,102021.59
2018-07-06T22:23:16.632Z,102021.98
2018-07-06T22:25:44.705Z,102019.64
2018-07-06T22:28:12.897Z,102018.62
2018-07-06T22:30:41.113Z,102027.98
2018-07-06T22:33:09.183Z,102020.03
2018-07-06T22:35:37.300Z,102021.57
2018-07-06T22:38:05.691Z,102019.91
2018-07-06T22:40:33.866Z,102028.73
2018-07-06T22:43:02.308Z,102022.63
2018-07-06T22:45:30.630Z,102013.66
2018-07-06T22:47:59.236Z,102022.80
2018-07-06T22:50:27.598Z,102023.67
2018-07-06T22:52:55.718Z,102024.03
2018-07-06T22:55:24.566Z,102025.45
2018-07-06T22:57:52.797Z,102023.95
2018-07-06T23:00:20.924Z,102026.83
2018-07-06T23:02:49.060Z,102025.86
2018-07-06T23:05:18.480Z,102029.77
2018-07-06T23:07:46.631Z,102027.27
2018-07-06T23:10:14.783Z,102028.13
2018-07-06T23:12:43.654Z,102029.72
2018-07-06T23:15:12.066Z,102036.70
2018-07-06T23:17:40.481Z,102036.06
2018-07-06T23:20:08.679Z,102040.96
2018-07-06T23:23:06.331Z,102037.78
2018-07-06T23:25:35.780Z,102039.15
2018-07-06T23:28:03.981Z,102037.13
2018-07-06T23:30:32.194Z,102038.70
2018-07-06T23:33:01.249Z,102040.41
2018-07-06T23:35:29.552Z,102039.38
2018-07-06T23:37:57.692Z,102034.31
2018-07-06T23:40:25.827Z,102035.67
2018-07-06T23:42:54.507Z,102033.83
2018-07-06T23:45:22.824Z,102030.78
2018-07-06T23:47:50.900Z,102041.09
2018-07-06T23:50:19.404Z,102038.22
2018-07-06T23:52:47.820Z,102026.58
2018-07-06T23:55:16.133Z,102026.58
2018-07-06T23:57:44.740Z,102024.55
